createdAt,value
2023-05-05T00:01:27.191Z,2.55
2023-05-05T00:03:53.765Z,2.33
2023-05-05T00:06:20.344Z,2.60
2023-05-05T00:08:46.999Z,2.65
2023-05-05T00:11:13.552Z,2.58
2023-05-05T00:13:40.077Z,2.17
2023-05-05T00:16:06.996Z,2.65
2023-05-05T00:18:33.819Z,2.78
2023-05-05T00:21:00.816Z,2.38
2023-05-05T00:23:27.310Z,2.90
2023-05-05T00:25:53.975Z,2.45
2023-05-05T00:28:20.689Z,2.47
2023-05-05T00:30:47.399Z,2.70
2023-05-05T00:33:14.106Z,2.78
2023-05-05T00:35:40.791Z,2.97
2023-05-05T00:38:07.364Z,3.22
2023-05-05T00:40:33.973Z,2.85
2023-05-05T00:43:00.592Z,3.03
2023-05-05T00:45:27.691Z,2.72
2023-05-05T00:47:56.877Z,2.50
2023-05-05T00:50:28.626Z,2.85
2023-05-05T00:53:00.244Z,2.58
2023-05-05T00:55:28.443Z,3.05
2023-05-05T00:57:56.800Z,2.42
2023-05-05T01:00:23.651Z,2.10
2023-05-05T01:02:51.859Z,2.33
2023-05-05T01:05:19.923Z,2.70
2023-05-05T01:07:51.605Z,2.50
2023-05-05T01:10:45.093Z,2.28
2023-05-05T01:13:47.118Z,2.35
2023-05-05T01:16:29.164Z,2.63
2023-05-05T01:19:20.401Z,2.10
2023-05-05T01:21:54.475Z,2.13
2023-05-05T01:24:39.266Z,2.92
2023-05-05T01:27:24.497Z,2.30
2023-05-05T01:30:16.931Z,2.30
2023-05-05T01:32:55.176Z,2.20
2023-05-05T01:35:37.621Z,1.83
2023-05-05T01:38:16.960Z,1.98
2023-05-05T01:40:48.798Z,2.60
2023-05-05T01:43:19.115Z,2.20
2023-05-05T01:45:47.625Z,2.00
2023-05-05T01:48:18.144Z,2.05
2023-05-05T01:50:46.706Z,2.38
2023-05-05T01:53:14.745Z,2.55
2023-05-05T01:55:42.732Z,2.63
2023-05-05T01:58:11.979Z,2.42
2023-05-05T02:00:39.027Z,2.45
2023-05-05T02:03:07.821Z,2.47
2023-05-05T02:05:36.922Z,2.92
2023-05-05T02:08:05.657Z,2.45
2023-05-05T02:10:32.866Z,2.58
2023-05-05T02:13:02.661Z,2.42
2023-05-05T02:15:31.390Z,3.95
2023-05-05T02:17:59.334Z,3.13
2023-05-05T02:20:27.346Z,2.92
2023-05-05T02:22:54.354Z,3.00
2023-05-05T02:25:23.610Z,3.88
2023-05-05T02:27:55.787Z,3.40
2023-05-05T02:30:23.100Z,3.50
2023-05-05T02:33:04.792Z,4.03
2023-05-05T02:35:36.603Z,4.00
2023-05-05T02:38:06.044Z,3.35
2023-05-05T02:40:41.891Z,3.72
2023-05-05T02:43:11.539Z,3.13
2023-05-05T02:45:38.587Z,3.17
2023-05-05T02:48:06.010Z,3.72
2023-05-05T02:50:37.357Z,3.85
2023-05-05T02:53:16.356Z,4.30
2023-05-05T02:55:53.103Z,4.78
2023-05-05T02:58:28.952Z,5.18
2023-05-05T03:01:00.030Z,5.90
2023-05-05T03:03:39.977Z,6.05
2023-05-05T03:06:16.139Z,7.18
2023-05-05T03:11:46.290Z,6.68
2023-05-05T03:14:17.145Z,6.45
2023-05-05T03:16:46.288Z,6.07
2023-05-05T03:19:17.319Z,6.32
2023-05-05T03:21:45.364Z,7.07
2023-05-05T03:24:20.010Z,6.65
2023-05-05T03:26:55.160Z,6.90
2023-05-05T03:29:25.790Z,7.07
2023-05-05T03:31:53.209Z,7.32
2023-05-05T03:34:19.907Z,7.47
2023-05-05T03:36:48.084Z,6.90
2023-05-05T03:39:16.020Z,7.32
2023-05-05T03:41:42.749Z,6.82
2023-05-05T03:44:10.965Z,7.85
2023-05-05T03:46:37.661Z,8.05
2023-05-05T03:49:07.046Z,8.95
2023-05-05T03:51:33.757Z,8.68
2023-05-05T03:54:00.360Z,8.35
2023-05-05T03:56:27.146Z,8.50
2023-05-05T03:58:53.752Z,8.98
2023-05-05T04:01:20.849Z,8.88
2023-05-05T04:03:47.833Z,9.27
2023-05-05T04:06:14.594Z,8.73
2023-05-05T04:08:41.350Z,9.45
2023-05-05T04:11:07.959Z,9.60
2023-05-05T04:13:35.026Z,10.00
2023-05-05T04:16:02.573Z,10.02
2023-05-05T04:18:29.448Z,10.80
2023-05-05T04:20:56.269Z,10.20
2023-05-05T04:23:23.013Z,10.32
2023-05-05T04:25:49.898Z,9.77
2023-05-05T04:28:17.310Z,9.95
2023-05-05T04:30:44.311Z,9.45
2023-05-05T04:33:11.106Z,10.13
2023-05-05T04:35:37.821Z,9.90
2023-05-05T04:38:04.451Z,9.43
2023-05-05T04:40:31.368Z,9.10
2023-05-05T04:42:58.676Z,8.77
2023-05-05T04:45:25.423Z,8.75
2023-05-05T04:47:52.076Z,8.63
2023-05-05T04:50:18.839Z,9.23
2023-05-05T04:52:45.477Z,11.93
2023-05-05T04:55:12.121Z,8.90
2023-05-05T04:57:39.043Z,9.75
2023-05-05T05:00:06.585Z,8.93
2023-05-05T05:02:33.389Z,9.30
2023-05-05T05:04:59.985Z,10.10
2023-05-05T05:07:26.680Z,9.25
2023-05-05T05:09:53.323Z,9.38
2023-05-05T05:12:19.957Z,10.45
2023-05-05T05:14:46.532Z,10.00
2023-05-05T05:17:13.398Z,9.65
2023-05-05T05:19:41.676Z,8.75
2023-05-05T05:22:08.879Z,9.98
2023-05-05T05:24:39.013Z,10.00
2023-05-05T05:27:09.845Z,10.00
2023-05-05T05:29:37.644Z,8.75
2023-05-05T05:32:04.411Z,9.18
2023-05-05T05:34:31.341Z,9.00
2023-05-05T05:36:58.600Z,9.52
2023-05-05T05:39:25.270Z,8.02
2023-05-05T05:41:51.973Z,9.70
2023-05-05T05:44:18.762Z,9.27
2023-05-05T05:46:45.292Z,8.90
2023-05-05T05:49:12.059Z,8.95
2023-05-05T05:51:38.612Z,8.77
2023-05-05T05:54:05.256Z,7.97
2023-05-05T05:56:32.260Z,7.93
2023-05-05T05:58:59.051Z,7.20
2023-05-05T06:01:25.645Z,7.18
2023-05-05T06:03:52.672Z,6.25
2023-05-05T06:06:20.157Z,6.63
2023-05-05T06:08:46.722Z,6.25
2023-05-05T06:11:13.292Z,5.75
2023-05-05T06:13:39.902Z,5.05
2023-05-05T06:16:07.059Z,5.57
2023-05-05T06:18:33.806Z,4.28
2023-05-05T06:21:00.392Z,3.88
2023-05-05T06:23:28.444Z,4.65
2023-05-05T06:26:00.089Z,4.20
2023-05-05T06:28:26.685Z,6.05
2023-05-05T06:30:53.188Z,5.13
2023-05-05T06:33:19.872Z,5.38
2023-05-05T06:35:47.698Z,5.20
2023-05-05T06:38:14.630Z,4.85
2023-05-05T06:40:42.021Z,5.15
2023-05-05T06:43:08.586Z,5.05
2023-05-05T06:45:43.684Z,4.47
2023-05-05T06:48:10.626Z,4.43
2023-05-05T06:50:37.111Z,6.18
2023-05-05T06:53:03.730Z,4.95
2023-05-05T06:55:30.769Z,5.28
2023-05-05T06:57:57.427Z,5.22
2023-05-05T07:00:24.281Z,4.93
2023-05-05T07:02:51.029Z,4.88
2023-05-05T07:05:18.293Z,5.65
2023-05-05T07:07:55.559Z,5.82
2023-05-05T07:10:23.716Z,4.97
2023-05-05T07:12:51.701Z,4.88
2023-05-05T07:15:27.510Z,5.38
2023-05-05T07:17:55.308Z,5.03
2023-05-05T07:20:21.889Z,4.93
2023-05-05T07:22:48.445Z,5.18
2023-05-05T07:25:15.070Z,4.82
2023-05-05T07:27:41.906Z,4.78
2023-05-05T07:30:13.237Z,5.07
2023-05-05T07:32:42.110Z,5.97
2023-05-05T07:35:09.041Z,4.30
2023-05-05T07:37:35.884Z,3.95
2023-05-05T07:40:02.480Z,4.32
2023-05-05T07:42:29.142Z,4.43
2023-05-05T07:44:55.696Z,4.63
2023-05-05T07:47:22.386Z,4.65
2023-05-05T07:49:48.975Z,4.68
2023-05-05T07:52:15.880Z,4.47
2023-05-05T07:54:42.575Z,4.68
2023-05-05T07:57:09.283Z,5.15
2023-05-05T07:59:36.025Z,5.15
2023-05-05T08:02:02.697Z,4.60
2023-05-05T08:04:29.386Z,5.40
2023-05-05T08:06:56.017Z,4.88
2023-05-05T08:09:22.622Z,5.55
2023-05-05T08:11:49.239Z,4.97
2023-05-05T08:14:15.818Z,5.00
2023-05-05T08:16:42.437Z,5.43
2023-05-05T08:19:21.160Z,4.90
2023-05-05T08:21:51.812Z,5.75
2023-05-05T08:24:18.566Z,5.00
2023-05-05T08:26:45.347Z,5.25
2023-05-05T08:29:11.983Z,5.65
2023-05-05T08:31:38.806Z,6.38
2023-05-05T08:34:06.521Z,5.43
2023-05-05T08:36:33.301Z,5.93
2023-05-05T08:39:00.254Z,5.68
2023-05-05T08:41:27.990Z,5.28
2023-05-05T08:43:55.255Z,5.13
2023-05-05T08:46:22.636Z,4.50
2023-05-05T08:48:52.407Z,4.60
2023-05-05T08:51:20.147Z,3.60
2023-05-05T08:53:54.861Z,4.20
2023-05-05T08:56:22.110Z,4.80
2023-05-05T08:58:49.450Z,4.38
2023-05-05T09:01:17.783Z,3.65
2023-05-05T09:03:46.137Z,3.90
2023-05-05T09:06:12.958Z,3.40
2023-05-05T09:08:40.234Z,3.15
2023-05-05T09:11:07.069Z,3.40
2023-05-05T09:13:33.695Z,2.88
2023-05-05T09:16:00.351Z,3.00
2023-05-05T09:18:27.048Z,2.47
2023-05-05T09:20:53.689Z,3.00
2023-05-05T09:23:21.337Z,2.45
2023-05-05T09:26:03.652Z,2.53
2023-05-05T09:28:30.377Z,2.67
2023-05-05T09:31:12.552Z,3.35
2023-05-05T09:33:39.410Z,3.53
2023-05-05T09:36:06.400Z,3.10
2023-05-05T09:38:34.699Z,2.90
2023-05-05T09:41:01.501Z,2.80
2023-05-05T09:43:28.154Z,2.67
2023-05-05T09:46:07.400Z,3.45
2023-05-05T09:48:34.233Z,3.05
2023-05-05T09:51:01.074Z,3.08
2023-05-05T09:53:39.025Z,3.13
2023-05-05T09:56:06.807Z,3.10
2023-05-05T09:58:33.356Z,3.40
2023-05-05T10:01:01.242Z,2.78
2023-05-05T10:03:27.873Z,2.53
2023-05-05T10:05:56.861Z,3.00
2023-05-05T10:08:29.420Z,2.75
2023-05-05T10:10:57.218Z,3.95
2023-05-05T10:13:24.829Z,3.70
2023-05-05T10:15:53.754Z,2.95
2023-05-05T10:18:25.302Z,3.70
2023-05-05T10:20:58.163Z,3.15
2023-05-05T10:23:35.933Z,3.40
2023-05-05T10:26:06.088Z,2.90
2023-05-05T10:28:52.880Z,3.30
2023-05-05T10:31:26.446Z,3.60
2023-05-05T10:34:00.571Z,3.00
2023-05-05T10:36:27.808Z,2.95
2023-05-05T10:38:59.763Z,3.13
2023-05-05T10:41:26.872Z,2.90
2023-05-05T10:44:00.440Z,2.70
2023-05-05T10:46:28.780Z,3.10
2023-05-05T10:49:07.704Z,2.53
2023-05-05T10:51:49.866Z,2.63
2023-05-05T10:54:43.320Z,2.13
2023-05-05T10:57:11.962Z,2.88
2023-05-05T10:59:38.844Z,2.20
2023-05-05T11:02:28.540Z,2.10
2023-05-05T11:05:18.090Z,2.90
2023-05-05T11:07:46.690Z,2.50
2023-05-05T11:10:15.727Z,3.60
2023-05-05T11:12:51.922Z,2.63
2023-05-05T11:15:27.595Z,2.80
2023-05-05T11:17:58.497Z,2.65
2023-05-05T11:20:39.397Z,2.00
2023-05-05T11:23:06.153Z,2.13
2023-05-05T11:25:40.427Z,2.08
2023-05-05T11:28:17.809Z,2.00
2023-05-05T11:31:04.781Z,2.40
2023-05-05T11:33:38.999Z,2.20
2023-05-05T11:36:10.329Z,1.85
2023-05-05T11:38:59.396Z,1.40
2023-05-05T11:41:34.930Z,1.65
2023-05-05T11:44:14.467Z,1.63
2023-05-05T11:47:03.819Z,2.30
2023-05-05T11:49:31.455Z,1.70
2023-05-05T11:52:08.469Z,1.75
2023-05-05T11:54:36.780Z,2.03
2023-05-05T11:57:08.158Z,2.00
2023-05-05T11:59:37.208Z,2.05
2023-05-05T12:02:04.794Z,1.95
2023-05-05T12:04:31.942Z,2.28
2023-05-05T12:06:59.372Z,1.40
2023-05-05T12:09:27.248Z,1.70
2023-05-05T12:11:55.808Z,2.08
2023-05-05T12:14:23.630Z,1.63
2023-05-05T12:17:07.920Z,1.83
2023-05-05T12:19:36.134Z,1.65
2023-05-05T12:22:04.363Z,2.13
2023-05-05T12:24:31.548Z,1.73
2023-05-05T12:27:11.339Z,1.88
2023-05-05T12:29:38.149Z,2.40
2023-05-05T12:32:05.185Z,1.90
2023-05-05T12:34:32.365Z,2.08
2023-05-05T12:36:59.132Z,2.13
2023-05-05T12:39:36.483Z,2.38
2023-05-05T12:42:04.362Z,2.47
2023-05-05T12:44:38.439Z,2.83
2023-05-05T12:47:06.096Z,1.77
2023-05-05T12:49:47.977Z,1.17
2023-05-05T12:52:16.115Z,1.65
2023-05-05T12:54:56.847Z,1.27
2023-05-05T12:57:23.537Z,1.60
2023-05-05T12:59:51.648Z,1.75
2023-05-05T13:02:19.298Z,2.25
2023-05-05T13:04:53.819Z,2.80
2023-05-05T13:07:22.108Z,2.60
2023-05-05T13:09:50.292Z,3.78
2023-05-05T13:12:20.796Z,2.88
2023-05-05T13:14:48.450Z,3.53
2023-05-05T13:17:15.070Z,3.15
2023-05-05T13:19:41.931Z,3.22
2023-05-05T13:22:12.030Z,3.00
2023-05-05T13:24:50.489Z,2.90
2023-05-05T13:27:18.015Z,2.97
2023-05-05T13:29:44.628Z,2.88
2023-05-05T13:32:11.483Z,2.60
2023-05-05T13:34:39.005Z,2.80
2023-05-05T13:37:05.933Z,2.85
2023-05-05T13:39:32.464Z,2.20
2023-05-05T13:41:59.185Z,2.28
2023-05-05T13:44:25.682Z,3.03
2023-05-05T13:46:52.408Z,2.80
2023-05-05T13:49:20.025Z,2.80
2023-05-05T13:51:46.905Z,2.42
2023-05-05T13:54:13.814Z,2.10
2023-05-05T13:56:40.649Z,2.05
2023-05-05T13:59:07.289Z,2.00
2023-05-05T14:01:34.047Z,1.85
2023-05-05T14:04:03.567Z,2.03
2023-05-05T14:06:32.482Z,1.98
2023-05-05T14:08:59.309Z,1.75
2023-05-05T14:11:25.871Z,1.70
2023-05-05T14:13:52.641Z,1.92
2023-05-05T14:16:19.365Z,1.83
2023-05-05T14:18:46.173Z,1.60
2023-05-05T14:21:13.032Z,2.40
2023-05-05T14:23:39.917Z,2.00
2023-05-05T14:26:08.674Z,1.80
2023-05-05T14:28:35.596Z,1.75
2023-05-05T14:31:02.426Z,2.05
2023-05-05T14:33:29.132Z,1.80
2023-05-05T14:35:55.881Z,1.70
2023-05-05T14:38:22.694Z,2.00
2023-05-05T14:40:49.414Z,1.77
2023-05-05T14:43:16.051Z,1.60
2023-05-05T14:45:44.098Z,1.50
2023-05-05T14:48:10.952Z,1.35
2023-05-05T14:50:38.490Z,1.50
2023-05-05T14:53:05.247Z,1.80
2023-05-05T14:55:32.785Z,1.45
2023-05-05T14:57:59.327Z,1.70
2023-05-05T15:00:26.706Z,1.80
2023-05-05T15:02:53.386Z,1.60
2023-05-05T15:05:20.005Z,0.10
2023-05-05T15:07:46.496Z,0.32
2023-05-05T15:10:13.153Z,0.30
2023-05-05T15:12:39.715Z,0.10
2023-05-05T15:15:08.506Z,1.17
2023-05-05T15:17:37.269Z,0.10
2023-05-05T15:20:05.658Z,0.10
2023-05-05T15:22:32.220Z,0.10
2023-05-05T15:24:58.857Z,0.10
2023-05-05T15:27:25.422Z,0.20
2023-05-05T15:29:52.043Z,0.10
2023-05-05T15:32:18.611Z,0.10
2023-05-05T15:34:45.423Z,0.20
2023-05-05T15:37:11.978Z,0.20
2023-05-05T15:39:38.501Z,0.17
2023-05-05T15:42:05.140Z,0.10
2023-05-05T15:44:31.812Z,0.20
2023-05-05T15:46:58.451Z,0.10
2023-05-05T15:49:25.095Z,0.20
2023-05-05T15:51:51.711Z,0.10
2023-05-05T15:54:18.467Z,0.10
2023-05-05T15:56:45.039Z,0.20
2023-05-05T15:59:11.630Z,0.10
2023-05-05T16:01:38.281Z,0.10
2023-05-05T16:04:05.112Z,0.10
2023-05-05T16:06:31.981Z,0.10
2023-05-05T16:08:58.631Z,0.10
2023-05-05T16:11:26.275Z,0.20
2023-05-05T16:13:53.204Z,0.10
2023-05-05T16:16:20.057Z,0.20
2023-05-05T16:18:46.694Z,0.13
2023-05-05T16:21:13.379Z,0.10
2023-05-05T16:23:40.300Z,0.10
2023-05-05T16:26:06.862Z,0.10
2023-05-05T16:28:34.221Z,0.10
2023-05-05T16:31:02.115Z,0.10
2023-05-05T16:33:29.584Z,0.10
2023-05-05T16:35:56.685Z,0.10
2023-05-05T16:38:23.249Z,0.10
2023-05-05T16:40:49.744Z,0.10
2023-05-05T16:43:16.365Z,0.20
2023-05-05T16:45:43.428Z,0.20
2023-05-05T16:52:48.066Z,0.20
2023-05-05T16:55:15.737Z,0.10
2023-05-05T16:57:42.289Z,0.10
2023-05-05T17:00:09.320Z,0.10
2023-05-05T17:02:36.089Z,0.20
2023-05-05T17:05:02.848Z,0.10
2023-05-05T17:07:29.380Z,0.13
2023-05-05T17:09:55.940Z,0.20
2023-05-05T17:12:22.451Z,0.10
2023-05-05T17:14:49.180Z,0.10
2023-05-05T17:17:15.851Z,0.10
2023-05-05T17:19:42.703Z,0.10
2023-05-05T17:22:09.184Z,0.10
2023-05-05T17:24:36.291Z,0.20
2023-05-05T17:27:03.253Z,0.20
2023-05-05T17:29:29.854Z,0.20
2023-05-05T17:31:56.435Z,0.20
2023-05-05T17:34:23.039Z,0.10
2023-05-05T17:36:49.533Z,0.20
2023-05-05T17:39:16.116Z,0.13
2023-05-05T17:41:42.783Z,0.20
2023-05-05T17:44:09.312Z,0.20
2023-05-05T17:46:36.324Z,0.20
2023-05-05T17:49:02.989Z,0.10
2023-05-05T17:51:29.588Z,0.10
2023-05-05T17:53:56.191Z,0.10
2023-05-05T17:56:22.740Z,0.10
2023-05-05T17:58:49.531Z,0.10
2023-05-05T18:01:23.358Z,0.10
2023-05-05T18:03:50.479Z,0.10
2023-05-05T18:06:17.236Z,0.15
2023-05-05T18:08:44.784Z,0.10
2023-05-05T18:11:11.594Z,0.20
2023-05-05T18:13:38.836Z,0.10
2023-05-05T18:16:06.121Z,0.10
2023-05-05T18:18:32.888Z,0.10
2023-05-05T18:20:59.614Z,0.13
2023-05-05T18:23:26.238Z,0.10
2023-05-05T18:25:52.818Z,0.10
2023-05-05T18:28:20.253Z,0.20
2023-05-05T18:30:46.829Z,0.20
2023-05-05T18:33:13.353Z,0.20
2023-05-05T18:35:39.853Z,0.20
2023-05-05T18:38:06.545Z,0.10
2023-05-05T18:40:33.104Z,0.10
2023-05-05T18:42:59.715Z,0.20
2023-05-05T18:45:26.319Z,0.20
2023-05-05T18:47:53.154Z,0.13
2023-05-05T18:50:19.827Z,0.10
2023-05-05T18:52:46.444Z,0.10
2023-05-05T18:55:12.978Z,0.10
2023-05-05T18:57:39.616Z,0.15
2023-05-05T19:00:06.865Z,0.20
2023-05-05T19:02:33.447Z,0.10
2023-05-05T19:05:00.076Z,0.20
2023-05-05T19:07:34.895Z,0.10
2023-05-05T19:10:04.595Z,0.30
2023-05-05T19:12:31.227Z,0.20
2023-05-05T19:14:58.006Z,0.20
2023-05-05T19:17:24.615Z,0.10
2023-05-05T19:19:51.432Z,0.10
2023-05-05T19:22:18.056Z,0.10
2023-05-05T19:24:44.594Z,0.20
2023-05-05T19:27:15.396Z,0.10
2023-05-05T19:29:43.093Z,0.10
2023-05-05T19:32:09.754Z,0.20
2023-05-05T19:34:36.566Z,0.20
2023-05-05T19:37:03.079Z,0.80
2023-05-05T19:39:29.651Z,0.28
2023-05-05T19:41:56.164Z,0.30
2023-05-05T19:44:23.204Z,0.40
2023-05-05T19:46:49.871Z,0.30
2023-05-05T19:49:16.456Z,0.32
2023-05-05T19:51:43.608Z,0.60
2023-05-05T19:54:10.284Z,0.65
2023-05-05T19:56:36.860Z,0.70
2023-05-05T20:03:42.162Z,0.73
2023-05-05T20:06:09.436Z,0.98
2023-05-05T20:08:36.156Z,0.98
2023-05-05T20:11:02.752Z,1.25
2023-05-05T20:13:29.246Z,1.10
2023-05-05T20:15:56.192Z,1.02
2023-05-05T20:18:22.685Z,0.98
2023-05-05T20:20:49.264Z,1.02
2023-05-05T20:23:15.825Z,1.23
2023-05-05T20:25:42.577Z,1.17
2023-05-05T20:28:09.060Z,1.30
2023-05-05T20:30:35.685Z,1.52
2023-05-05T20:33:02.252Z,1.70
2023-05-05T20:35:28.867Z,1.38
2023-05-05T20:37:56.181Z,1.40
2023-05-05T20:40:22.677Z,2.05
2023-05-05T20:42:49.173Z,1.70
2023-05-05T20:45:15.770Z,2.30
2023-05-05T20:47:42.399Z,2.83
2023-05-05T20:50:09.382Z,3.47
2023-05-05T20:52:36.163Z,3.70
2023-05-05T20:55:02.688Z,3.42
2023-05-05T20:57:29.395Z,3.50
2023-05-05T20:59:56.201Z,5.70
2023-05-05T21:02:22.919Z,5.82
2023-05-05T21:04:49.521Z,5.18
2023-05-05T21:07:16.007Z,3.10
2023-05-05T21:09:46.100Z,2.80
2023-05-05T21:12:12.690Z,3.00
2023-05-05T21:14:43.956Z,2.53
2023-05-05T21:17:10.512Z,2.38
2023-05-05T21:19:37.032Z,2.13
2023-05-05T21:22:04.295Z,2.38
2023-05-05T21:24:31.024Z,2.53
2023-05-05T21:26:57.561Z,2.63
2023-05-05T21:29:26.967Z,2.67
2023-05-05T21:31:53.628Z,2.53
2023-05-05T21:34:20.187Z,3.47
2023-05-05T21:36:46.754Z,3.72
2023-05-05T21:39:13.421Z,3.70
2023-05-05T21:41:39.980Z,3.72
2023-05-05T21:44:06.487Z,3.03
2023-05-05T21:46:33.126Z,3.13
2023-05-05T21:48:59.688Z,3.53
2023-05-05T21:51:27.161Z,4.90
2023-05-05T21:53:53.649Z,6.43
2023-05-05T21:56:20.255Z,3.20
2023-05-05T21:58:46.794Z,2.25
2023-05-05T22:01:13.454Z,2.40
2023-05-05T22:03:42.113Z,2.75
2023-05-05T22:06:08.907Z,2.42
2023-05-05T22:08:35.521Z,2.38
2023-05-05T22:11:02.151Z,3.45
2023-05-05T22:13:28.701Z,4.07
2023-05-05T22:15:55.375Z,4.20
2023-05-05T22:18:21.996Z,3.95
2023-05-05T22:20:48.700Z,3.08
2023-05-05T22:23:16.454Z,3.38
2023-05-05T22:25:44.409Z,2.83
2023-05-05T22:28:11.497Z,3.40
2023-05-05T22:30:38.069Z,4.10
2023-05-05T22:33:04.689Z,3.95
2023-05-05T22:35:31.973Z,3.60
2023-05-05T22:37:59.036Z,2.88
2023-05-05T22:40:25.587Z,3.10
2023-05-05T22:42:52.826Z,2.97
2023-05-05T22:45:19.551Z,2.70
2023-05-05T22:47:46.124Z,2.85
2023-05-05T22:50:12.784Z,3.35
2023-05-05T22:52:39.360Z,2.58
2023-05-05T22:55:06.062Z,2.95
2023-05-05T22:57:34.946Z,2.80
2023-05-05T23:00:02.834Z,2.85
2023-05-05T23:02:29.385Z,3.17
2023-05-05T23:04:55.957Z,3.65
2023-05-05T23:07:22.458Z,3.55
2023-05-05T23:09:49.060Z,2.85
2023-05-05T23:12:15.558Z,3.42
2023-05-05T23:14:42.259Z,3.50
2023-05-05T23:17:08.855Z,3.35
2023-05-05T23:19:36.006Z,3.80
2023-05-05T23:22:02.893Z,4.00
2023-05-05T23:24:29.630Z,4.45
2023-05-05T23:26:59.241Z,4.93
2023-05-05T23:29:25.781Z,4.55
2023-05-05T23:31:52.396Z,5.25
2023-05-05T23:34:19.087Z,5.43
2023-05-05T23:36:46.042Z,6.07
2023-05-05T23:39:12.713Z,6.65
2023-05-05T23:41:39.192Z,6.80
2023-05-05T23:44:06.004Z,5.85
2023-05-05T23:46:32.634Z,7.10
2023-05-05T23:48:59.268Z,9.68
2023-05-05T23:51:27.118Z,9.98
2023-05-05T23:53:55.906Z,8.63
2023-05-05T23:56:23.318Z,11.35
2023-05-05T23:58:50.014Z,7.57
